sensor_id;sensor_type;location;lat;lon;timestamp;P1;durP1;ratioP1;P2;durP2;ratioP2
72949;SDS011;64868;45.710;9.590;2023-08-01T00:00:48;7.32;;;4.07;;
72949;SDS011;64868;45.710;9.590;2023-08-01T00:03:19;7.28;;;4.35;;
72949;SDS011;64868;45.710;9.590;2023-08-01T00:05:49;6.30;;;3.80;;
72949;SDS011;64868;45.710;9.590;2023-08-01T00:08:16;7.80;;;4.00;;
72949;SDS011;64868;45.710;9.590;2023-08-01T00:10:44;8.45;;;4.10;;
72949;SDS011;64868;45.710;9.590;2023-08-01T00:13:14;6.30;;;3.85;;
72949;SDS011;64868;45.710;9.590;2023-08-01T00:15:44;6.78;;;3.75;;
72949;SDS011;64868;45.710;9.590;2023-08-01T00:18:12;8.38;;;4.10;;
72949;SDS011;64868;45.710;9.590;2023-08-01T00:20:40;7.20;;;3.95;;
72949;SDS011;64868;45.710;9.590;2023-08-01T00:23:10;7.55;;;4.38;;
72949;SDS011;64868;45.710;9.590;2023-08-01T00:25:40;7.75;;;4.15;;
72949;SDS011;64868;45.710;9.590;2023-08-01T00:28:10;7.18;;;4.10;;
72949;SDS011;64868;45.710;9.590;2023-08-01T00:30:40;8.15;;;4.30;;
72949;SDS011;64868;45.710;9.590;2023-08-01T00:33:10;7.78;;;4.07;;
72949;SDS011;64868;45.710;9.590;2023-08-01T00:35:40;8.52;;;3.90;;
72949;SDS011;64868;45.710;9.590;2023-08-01T00:38:10;7.55;;;3.80;;
72949;SDS011;64868;45.710;9.590;2023-08-01T00:40:40;7.60;;;4.35;;
72949;SDS011;64868;45.710;9.590;2023-08-01T00:43:08;6.15;;;3.63;;
72949;SDS011;64868;45.710;9.590;2023-08-01T00:45:35;7.30;;;3.78;;
72949;SDS011;64868;45.710;9.590;2023-08-01T00:48:05;6.40;;;3.95;;
72949;SDS011;64868;45.710;9.590;2023-08-01T00:50:36;8.05;;;4.03;;
72949;SDS011;64868;45.710;9.590;2023-08-01T00:53:03;7.82;;;3.90;;
72949;SDS011;64868;45.710;9.590;2023-08-01T00:55:33;7.60;;;4.00;;
72949;SDS011;64868;45.710;9.590;2023-08-01T00:58:03;7.85;;;3.92;;
72949;SDS011;64868;45.710;9.590;2023-08-01T01:00:33;7.22;;;3.92;;
72949;SDS011;64868;45.710;9.590;2023-08-01T01:03:04;7.97;;;3.92;;
72949;SDS011;64868;45.710;9.590;2023-08-01T01:05:34;8.05;;;4.55;;
72949;SDS011;64868;45.710;9.590;2023-08-01T01:08:02;7.43;;;4.75;;
72949;SDS011;64868;45.710;9.590;2023-08-01T01:10:32;6.82;;;4.03;;
72949;SDS011;64868;45.710;9.590;2023-08-01T01:12:59;8.00;;;4.43;;
72949;SDS011;64868;45.710;9.590;2023-08-01T01:15:30;7.75;;;4.55;;
72949;SDS011;64868;45.710;9.590;2023-08-01T01:18:00;6.80;;;4.22;;
72949;SDS011;64868;45.710;9.590;2023-08-01T01:20:34;7.80;;;5.03;;
72949;SDS011;64868;45.710;9.590;2023-08-01T01:23:05;10.35;;;4.30;;
72949;SDS011;64868;45.710;9.590;2023-08-01T01:25:32;9.70;;;4.13;;
72949;SDS011;64868;45.710;9.590;2023-08-01T01:30:31;8.43;;;4.38;;
72949;SDS011;64868;45.710;9.590;2023-08-01T01:33:01;7.47;;;4.28;;
72949;SDS011;64868;45.710;9.590;2023-08-01T01:35:31;9.15;;;4.18;;
72949;SDS011;64868;45.710;9.590;2023-08-01T01:38:03;7.07;;;4.70;;
72949;SDS011;64868;45.710;9.590;2023-08-01T01:40:36;7.57;;;5.00;;
72949;SDS011;64868;45.710;9.590;2023-08-01T01:43:06;8.75;;;4.63;;
72949;SDS011;64868;45.710;9.590;2023-08-01T01:45:36;8.10;;;4.93;;
72949;SDS011;64868;45.710;9.590;2023-08-01T01:48:06;8.35;;;4.90;;
72949;SDS011;64868;45.710;9.590;2023-08-01T01:50:36;7.10;;;4.63;;
72949;SDS011;64868;45.710;9.590;2023-08-01T01:53:06;7.03;;;4.85;;
72949;SDS011;64868;45.710;9.590;2023-08-01T01:55:36;8.93;;;5.28;;
72949;SDS011;64868;45.710;9.590;2023-08-01T01:58:04;11.07;;;5.47;;
72949;SDS011;64868;45.710;9.590;2023-08-01T02:00:34;8.82;;;5.60;;
72949;SDS011;64868;45.710;9.590;2023-08-01T02:03:04;9.38;;;5.13;;
72949;SDS011;64868;45.710;9.590;2023-08-01T02:05:34;7.78;;;4.93;;
72949;SDS011;64868;45.710;9.590;2023-08-01T02:08:04;11.00;;;5.35;;
72949;SDS011;64868;45.710;9.590;2023-08-01T02:10:32;11.32;;;6.00;;
72949;SDS011;64868;45.710;9.590;2023-08-01T02:12:59;12.35;;;6.18;;
72949;SDS011;64868;45.710;9.590;2023-08-01T02:15:28;15.10;;;6.25;;
72949;SDS011;64868;45.710;9.590;2023-08-01T02:17:58;12.65;;;6.80;;
72949;SDS011;64868;45.710;9.590;2023-08-01T02:20:25;13.82;;;7.50;;
72949;SDS011;64868;45.710;9.590;2023-08-01T02:22:55;13.27;;;7.35;;
72949;SDS011;64868;45.710;9.590;2023-08-01T02:25:26;14.80;;;8.13;;
72949;SDS011;64868;45.710;9.590;2023-08-01T02:27:56;13.45;;;8.25;;
72949;SDS011;64868;45.710;9.590;2023-08-01T02:30:26;10.65;;;5.65;;
72949;SDS011;64868;45.710;9.590;2023-08-01T02:32:53;7.88;;;4.13;;
72949;SDS011;64868;45.710;9.590;2023-08-01T02:35:23;6.78;;;3.90;;
72949;SDS011;64868;45.710;9.590;2023-08-01T02:37:53;7.72;;;3.85;;
72949;SDS011;64868;45.710;9.590;2023-08-01T02:40:24;8.15;;;4.53;;
72949;SDS011;64868;45.710;9.590;2023-08-01T02:42:53;6.80;;;3.72;;
72949;SDS011;64868;45.710;9.590;2023-08-01T02:45:24;7.88;;;4.82;;
72949;SDS011;64868;45.710;9.590;2023-08-01T02:47:54;7.80;;;4.90;;
72949;SDS011;64868;45.710;9.590;2023-08-01T02:50:21;8.00;;;5.22;;
72949;SDS011;64868;45.710;9.590;2023-08-01T02:52:49;8.32;;;5.25;;
72949;SDS011;64868;45.710;9.590;2023-08-01T02:55:19;9.20;;;4.95;;
72949;SDS011;64868;45.710;9.590;2023-08-01T02:57:49;9.07;;;4.90;;
72949;SDS011;64868;45.710;9.590;2023-08-01T03:00:19;9.95;;;5.65;;
72949;SDS011;64868;45.710;9.590;2023-08-01T03:02:49;12.68;;;7.65;;
72949;SDS011;64868;45.710;9.590;2023-08-01T03:05:19;10.45;;;6.07;;
72949;SDS011;64868;45.710;9.590;2023-08-01T03:07:49;9.80;;;6.70;;
72949;SDS011;64868;45.710;9.590;2023-08-01T03:10:19;12.07;;;8.63;;
72949;SDS011;64868;45.710;9.590;2023-08-01T03:12:49;14.88;;;9.23;;
72949;SDS011;64868;45.710;9.590;2023-08-01T03:15:17;13.60;;;9.82;;
72949;SDS011;64868;45.710;9.590;2023-08-01T03:17:47;11.05;;;8.13;;
72949;SDS011;64868;45.710;9.590;2023-08-01T03:20:17;12.13;;;8.55;;
72949;SDS011;64868;45.710;9.590;2023-08-01T03:22:47;13.10;;;8.50;;
72949;SDS011;64868;45.710;9.590;2023-08-01T03:25:17;9.38;;;7.30;;
72949;SDS011;64868;45.710;9.590;2023-08-01T03:27:45;10.80;;;8.85;;
72949;SDS011;64868;45.710;9.590;2023-08-01T03:30:15;10.90;;;8.07;;
72949;SDS011;64868;45.710;9.590;2023-08-01T03:32:45;12.73;;;8.50;;
72949;SDS011;64868;45.710;9.590;2023-08-01T03:35:15;11.82;;;8.02;;
72949;SDS011;64868;45.710;9.590;2023-08-01T03:37:45;11.60;;;8.50;;
72949;SDS011;64868;45.710;9.590;2023-08-01T03:40:13;9.60;;;7.18;;
72949;SDS011;64868;45.710;9.590;2023-08-01T03:42:43;10.48;;;6.50;;
72949;SDS011;64868;45.710;9.590;2023-08-01T03:45:13;12.82;;;8.07;;
72949;SDS011;64868;45.710;9.590;2023-08-01T03:47:43;13.57;;;7.97;;
72949;SDS011;64868;45.710;9.590;2023-08-01T03:50:13;12.23;;;8.40;;
72949;SDS011;64868;45.710;9.590;2023-08-01T03:52:43;12.48;;;7.63;;
72949;SDS011;64868;45.710;9.590;2023-08-01T03:55:13;10.95;;;7.60;;
72949;SDS011;64868;45.710;9.590;2023-08-01T03:57:43;15.50;;;8.13;;
72949;SDS011;64868;45.710;9.590;2023-08-01T04:00:13;11.27;;;8.73;;
72949;SDS011;64868;45.710;9.590;2023-08-01T04:02:44;11.70;;;8.27;;
72949;SDS011;64868;45.710;9.590;2023-08-01T04:05:11;14.80;;;8.90;;
72949;SDS011;64868;45.710;9.590;2023-08-01T04:07:41;9.85;;;6.95;;
72949;SDS011;64868;45.710;9.590;2023-08-01T04:10:11;12.38;;;7.38;;
72949;SDS011;64868;45.710;9.590;2023-08-01T04:12:39;12.75;;;8.38;;
72949;SDS011;64868;45.710;9.590;2023-08-01T04:15:09;10.40;;;7.75;;
72949;SDS011;64868;45.710;9.590;2023-08-01T04:17:39;10.45;;;7.07;;
72949;SDS011;64868;45.710;9.590;2023-08-01T04:20:09;11.38;;;7.63;;
72949;SDS011;64868;45.710;9.590;2023-08-01T04:22:39;9.32;;;6.63;;
72949;SDS011;64868;45.710;9.590;2023-08-01T04:25:09;9.75;;;6.80;;
72949;SDS011;64868;45.710;9.590;2023-08-01T04:27:39;8.70;;;6.40;;
72949;SDS011;64868;45.710;9.590;2023-08-01T04:30:10;12.75;;;6.72;;
72949;SDS011;64868;45.710;9.590;2023-08-01T04:32:40;9.82;;;6.28;;
72949;SDS011;64868;45.710;9.590;2023-08-01T04:35:10;11.50;;;6.55;;
72949;SDS011;64868;45.710;9.590;2023-08-01T04:37:40;8.68;;;6.05;;
72949;SDS011;64868;45.710;9.590;2023-08-01T04:40:11;8.73;;;5.15;;
72949;SDS011;64868;45.710;9.590;2023-08-01T04:42:41;10.75;;;6.43;;
72949;SDS011;64868;45.710;9.590;2023-08-01T04:45:11;11.50;;;6.90;;
72949;SDS011;64868;45.710;9.590;2023-08-01T04:47:36;10.63;;;6.40;;
72949;SDS011;64868;45.710;9.590;2023-08-01T04:50:02;10.23;;;6.40;;
72949;SDS011;64868;45.710;9.590;2023-08-01T04:52:32;13.25;;;7.43;;
72949;SDS011;64868;45.710;9.590;2023-08-01T04:55:01;11.13;;;6.85;;
72949;SDS011;64868;45.710;9.590;2023-08-01T04:57:32;11.45;;;6.63;;
72949;SDS011;64868;45.710;9.590;2023-08-01T04:59:59;12.93;;;7.00;;
72949;SDS011;64868;45.710;9.590;2023-08-01T05:02:29;10.68;;;6.88;;
72949;SDS011;64868;45.710;9.590;2023-08-01T05:04:59;10.15;;;6.15;;
72949;SDS011;64868;45.710;9.590;2023-08-01T05:07:30;10.05;;;6.43;;
72949;SDS011;64868;45.710;9.590;2023-08-01T05:09:57;8.75;;;5.88;;
72949;SDS011;64868;45.710;9.590;2023-08-01T05:12:27;14.70;;;6.32;;
72949;SDS011;64868;45.710;9.590;2023-08-01T05:14:57;9.23;;;6.22;;
72949;SDS011;64868;45.710;9.590;2023-08-01T05:17:25;10.63;;;6.45;;
72949;SDS011;64868;45.710;9.590;2023-08-01T05:19:52;9.93;;;6.28;;
72949;SDS011;64868;45.710;9.590;2023-08-01T05:22:23;8.88;;;6.45;;
72949;SDS011;64868;45.710;9.590;2023-08-01T05:24:50;9.05;;;5.70;;
72949;SDS011;64868;45.710;9.590;2023-08-01T05:27:20;8.88;;;5.80;;
72949;SDS011;64868;45.710;9.590;2023-08-01T05:29:50;9.30;;;5.47;;
72949;SDS011;64868;45.710;9.590;2023-08-01T05:32:18;8.25;;;6.03;;
72949;SDS011;64868;45.710;9.590;2023-08-01T05:34:46;7.53;;;5.23;;
72949;SDS011;64868;45.710;9.590;2023-08-01T05:37:16;8.55;;;5.63;;
72949;SDS011;64868;45.710;9.590;2023-08-01T05:39:45;9.45;;;5.80;;
72949;SDS011;64868;45.710;9.590;2023-08-01T05:42:15;8.10;;;4.97;;
72949;SDS011;64868;45.710;9.590;2023-08-01T05:44:46;9.20;;;5.25;;
72949;SDS011;64868;45.710;9.590;2023-08-01T05:47:16;12.45;;;5.50;;
72949;SDS011;64868;45.710;9.590;2023-08-01T05:49:46;8.07;;;5.18;;
72949;SDS011;64868;45.710;9.590;2023-08-01T05:52:16;9.95;;;5.05;;
72949;SDS011;64868;45.710;9.590;2023-08-01T05:54:46;9.13;;;5.50;;
72949;SDS011;64868;45.710;9.590;2023-08-01T05:57:16;8.88;;;4.80;;
72949;SDS011;64868;45.710;9.590;2023-08-01T05:59:46;8.13;;;4.55;;
72949;SDS011;64868;45.710;9.590;2023-08-01T06:02:16;6.88;;;4.40;;
72949;SDS011;64868;45.710;9.590;2023-08-01T06:04:46;8.48;;;5.22;;
72949;SDS011;64868;45.710;9.590;2023-08-01T06:07:14;6.93;;;4.03;;
72949;SDS011;64868;45.710;9.590;2023-08-01T06:09:41;6.60;;;3.83;;
72949;SDS011;64868;45.710;9.590;2023-08-01T06:12:12;8.85;;;3.53;;
72949;SDS011;64868;45.710;9.590;2023-08-01T06:14:39;9.90;;;4.65;;
72949;SDS011;64868;45.710;9.590;2023-08-01T06:17:09;13.10;;;4.80;;
72949;SDS011;64868;45.710;9.590;2023-08-01T06:19:39;7.95;;;4.00;;
72949;SDS011;64868;45.710;9.590;2023-08-01T06:22:09;8.20;;;4.50;;
72949;SDS011;64868;45.710;9.590;2023-08-01T06:24:39;7.57;;;4.53;;
72949;SDS011;64868;45.710;9.590;2023-08-01T06:27:10;7.63;;;4.57;;
72949;SDS011;64868;45.710;9.590;2023-08-01T06:29:40;7.32;;;4.50;;
72949;SDS011;64868;45.710;9.590;2023-08-01T06:32:10;8.07;;;3.80;;
72949;SDS011;64868;45.710;9.590;2023-08-01T06:34:40;6.40;;;3.75;;
72949;SDS011;64868;45.710;9.590;2023-08-01T06:37:08;11.48;;;4.07;;
72949;SDS011;64868;45.710;9.590;2023-08-01T06:39:37;8.00;;;4.18;;
72949;SDS011;64868;45.710;9.590;2023-08-01T06:42:07;6.75;;;3.78;;
72949;SDS011;64868;45.710;9.590;2023-08-01T06:44:37;6.95;;;3.53;;
72949;SDS011;64868;45.710;9.590;2023-08-01T06:47:07;7.78;;;3.75;;
72949;SDS011;64868;45.710;9.590;2023-08-01T06:49:38;6.53;;;3.50;;
72949;SDS011;64868;45.710;9.590;2023-08-01T06:52:08;7.72;;;4.10;;
72949;SDS011;64868;45.710;9.590;2023-08-01T06:54:38;6.35;;;3.67;;
72949;SDS011;64868;45.710;9.590;2023-08-01T06:57:08;8.30;;;3.92;;
72949;SDS011;64868;45.710;9.590;2023-08-01T06:59:35;6.57;;;3.40;;
72949;SDS011;64868;45.710;9.590;2023-08-01T07:02:05;6.80;;;3.80;;
72949;SDS011;64868;45.710;9.590;2023-08-01T07:04:36;6.68;;;3.50;;
72949;SDS011;64868;45.710;9.590;2023-08-01T07:07:05;7.38;;;3.55;;
72949;SDS011;64868;45.710;9.590;2023-08-01T07:09:33;6.05;;;3.15;;
72949;SDS011;64868;45.710;9.590;2023-08-01T07:12:03;6.10;;;3.20;;
72949;SDS011;64868;45.710;9.590;2023-08-01T07:14:33;6.50;;;3.35;;
72949;SDS011;64868;45.710;9.590;2023-08-01T07:17:03;5.85;;;3.17;;
72949;SDS011;64868;45.710;9.590;2023-08-01T07:19:34;6.13;;;3.08;;
72949;SDS011;64868;45.710;9.590;2023-08-01T07:22:02;6.80;;;3.20;;
72949;SDS011;64868;45.710;9.590;2023-08-01T07:24:32;10.02;;;4.07;;
72949;SDS011;64868;45.710;9.590;2023-08-01T07:27:02;7.07;;;3.42;;
72949;SDS011;64868;45.710;9.590;2023-08-01T07:29:33;6.05;;;2.92;;
72949;SDS011;64868;45.710;9.590;2023-08-01T07:32:01;9.05;;;3.03;;
72949;SDS011;64868;45.710;9.590;2023-08-01T07:34:31;6.78;;;3.45;;
72949;SDS011;64868;45.710;9.590;2023-08-01T07:37:01;6.35;;;2.80;;
72949;SDS011;64868;45.710;9.590;2023-08-01T07:39:31;6.90;;;2.83;;
72949;SDS011;64868;45.710;9.590;2023-08-01T07:42:01;6.55;;;2.42;;
72949;SDS011;64868;45.710;9.590;2023-08-01T07:44:31;6.22;;;2.70;;
72949;SDS011;64868;45.710;9.590;2023-08-01T07:46:59;6.10;;;2.72;;
72949;SDS011;64868;45.710;9.590;2023-08-01T07:49:29;5.90;;;2.75;;
72949;SDS011;64868;45.710;9.590;2023-08-01T07:51:57;6.55;;;2.72;;
72949;SDS011;64868;45.710;9.590;2023-08-01T07:54:24;7.35;;;2.72;;
72949;SDS011;64868;45.710;9.590;2023-08-01T07:56:52;7.07;;;2.65;;
72949;SDS011;64868;45.710;9.590;2023-08-01T07:59:22;7.38;;;2.65;;
72949;SDS011;64868;45.710;9.590;2023-08-01T08:01:50;6.20;;;2.35;;
72949;SDS011;64868;45.710;9.590;2023-08-01T08:04:20;7.93;;;2.50;;
72949;SDS011;64868;45.710;9.590;2023-08-01T08:06:49;5.63;;;2.10;;
72949;SDS011;64868;45.710;9.590;2023-08-01T08:09:20;4.88;;;2.22;;
72949;SDS011;64868;45.710;9.590;2023-08-01T08:11:50;5.28;;;2.33;;
72949;SDS011;64868;45.710;9.590;2023-08-01T08:14:20;5.97;;;2.20;;
72949;SDS011;64868;45.710;9.590;2023-08-01T08:16:51;6.25;;;2.58;;
72949;SDS011;64868;45.710;9.590;2023-08-01T08:19:21;7.82;;;2.70;;
72949;SDS011;64868;45.710;9.590;2023-08-01T08:21:51;6.13;;;2.67;;
72949;SDS011;64868;45.710;9.590;2023-08-01T08:24:21;8.23;;;2.85;;
72949;SDS011;64868;45.710;9.590;2023-08-01T08:26:51;5.90;;;2.95;;
72949;SDS011;64868;45.710;9.590;2023-08-01T08:29:19;5.45;;;2.65;;
72949;SDS011;64868;45.710;9.590;2023-08-01T08:31:49;6.82;;;3.30;;
72949;SDS011;64868;45.710;9.590;2023-08-01T08:34:17;6.75;;;2.65;;
72949;SDS011;64868;45.710;9.590;2023-08-01T08:36:47;6.40;;;2.63;;
72949;SDS011;64868;45.710;9.590;2023-08-01T08:39:14;5.57;;;2.58;;
72949;SDS011;64868;45.710;9.590;2023-08-01T08:41:47;5.30;;;2.70;;
72949;SDS011;64868;45.710;9.590;2023-08-01T08:44:18;5.68;;;2.50;;
72949;SDS011;64868;45.710;9.590;2023-08-01T08:46:51;6.50;;;2.70;;
72949;SDS011;64868;45.710;9.590;2023-08-01T08:49:22;8.10;;;2.85;;
72949;SDS011;64868;45.710;9.590;2023-08-01T08:51:51;5.65;;;2.20;;
72949;SDS011;64868;45.710;9.590;2023-08-01T08:54:22;5.63;;;2.17;;
72949;SDS011;64868;45.710;9.590;2023-08-01T08:56:52;6.88;;;2.17;;
72949;SDS011;64868;45.710;9.590;2023-08-01T08:59:22;8.60;;;3.40;;
72949;SDS011;64868;45.710;9.590;2023-08-01T09:01:53;6.30;;;2.95;;
72949;SDS011;64868;45.710;9.590;2023-08-01T09:04:21;5.95;;;3.10;;
72949;SDS011;64868;45.710;9.590;2023-08-01T09:06:49;5.65;;;2.35;;
72949;SDS011;64868;45.710;9.590;2023-08-01T09:09:20;6.90;;;2.60;;
72949;SDS011;64868;45.710;9.590;2023-08-01T09:11:51;7.15;;;2.53;;
72949;SDS011;64868;45.710;9.590;2023-08-01T09:14:21;5.55;;;2.50;;
72949;SDS011;64868;45.710;9.590;2023-08-01T09:16:49;8.25;;;2.03;;
72949;SDS011;64868;45.710;9.590;2023-08-01T09:19:23;5.47;;;2.30;;
72949;SDS011;64868;45.710;9.590;2023-08-01T09:21:54;5.88;;;2.55;;
72949;SDS011;64868;45.710;9.590;2023-08-01T09:24:22;7.38;;;2.90;;
72949;SDS011;64868;45.710;9.590;2023-08-01T09:26:52;9.10;;;3.00;;
72949;SDS011;64868;45.710;9.590;2023-08-01T09:29:22;6.13;;;2.67;;
72949;SDS011;64868;45.710;9.590;2023-08-01T09:31:52;8.35;;;2.60;;
72949;SDS011;64868;45.710;9.590;2023-08-01T09:34:22;5.70;;;3.05;;
72949;SDS011;64868;45.710;9.590;2023-08-01T09:36:50;6.75;;;3.00;;
72949;SDS011;64868;45.710;9.590;2023-08-01T09:39:20;7.03;;;2.90;;
72949;SDS011;64868;45.710;9.590;2023-08-01T09:41:52;6.57;;;3.00;;
72949;SDS011;64868;45.710;9.590;2023-08-01T09:44:24;8.07;;;3.20;;
72949;SDS011;64868;45.710;9.590;2023-08-01T09:49:23;7.43;;;3.20;;
72949;SDS011;64868;45.710;9.590;2023-08-01T09:51:53;7.82;;;3.10;;
72949;SDS011;64868;45.710;9.590;2023-08-01T09:54:21;6.43;;;3.00;;
72949;SDS011;64868;45.710;9.590;2023-08-01T09:56:49;7.07;;;4.10;;
72949;SDS011;64868;45.710;9.590;2023-08-01T09:59:26;6.80;;;3.70;;
72949;SDS011;64868;45.710;9.590;2023-08-01T10:01:56;7.45;;;4.13;;
72949;SDS011;64868;45.710;9.590;2023-08-01T10:04:28;7.45;;;3.47;;
72949;SDS011;64868;45.710;9.590;2023-08-01T10:07:29;8.40;;;3.25;;
72949;SDS011;64868;45.710;9.590;2023-08-01T10:09:52;9.45;;;4.00;;
72949;SDS011;64868;45.710;9.590;2023-08-01T10:12:23;9.18;;;3.90;;
72949;SDS011;64868;45.710;9.590;2023-08-01T10:14:52;8.20;;;3.50;;
72949;SDS011;64868;45.710;9.590;2023-08-01T10:17:22;10.45;;;4.32;;
72949;SDS011;64868;45.710;9.590;2023-08-01T10:19:53;9.18;;;4.43;;
72949;SDS011;64868;45.710;9.590;2023-08-01T10:22:21;8.88;;;4.38;;
72949;SDS011;64868;45.710;9.590;2023-08-01T10:24:48;9.35;;;3.65;;
72949;SDS011;64868;45.710;9.590;2023-08-01T10:27:22;8.60;;;4.43;;
72949;SDS011;64868;45.710;9.590;2023-08-01T10:29:59;7.40;;;3.17;;
72949;SDS011;64868;45.710;9.590;2023-08-01T10:32:35;10.05;;;4.68;;
72949;SDS011;64868;45.710;9.590;2023-08-01T10:35:03;7.18;;;3.75;;
72949;SDS011;64868;45.710;9.590;2023-08-01T10:37:43;7.68;;;3.47;;
72949;SDS011;64868;45.710;9.590;2023-08-01T10:40:13;7.63;;;3.97;;
72949;SDS011;64868;45.710;9.590;2023-08-01T10:42:44;9.50;;;4.10;;
72949;SDS011;64868;45.710;9.590;2023-08-01T10:45:23;7.50;;;3.92;;
72949;SDS011;64868;45.710;9.590;2023-08-01T10:47:54;6.65;;;3.47;;
72949;SDS011;64868;45.710;9.590;2023-08-01T10:50:36;7.60;;;3.72;;
72949;SDS011;64868;45.710;9.590;2023-08-01T10:53:08;7.55;;;3.70;;
72949;SDS011;64868;45.710;9.590;2023-08-01T10:55:42;10.40;;;3.92;;
72949;SDS011;64868;45.710;9.590;2023-08-01T10:58:12;6.60;;;3.28;;
72949;SDS011;64868;45.710;9.590;2023-08-01T11:00:42;7.75;;;3.42;;
72949;SDS011;64868;45.710;9.590;2023-08-01T11:03:12;8.57;;;3.45;;
72949;SDS011;64868;45.710;9.590;2023-08-01T11:05:40;7.65;;;3.47;;
72949;SDS011;64868;45.710;9.590;2023-08-01T11:08:10;7.68;;;3.63;;
72949;SDS011;64868;45.710;9.590;2023-08-01T11:10:40;6.90;;;3.03;;
72949;SDS011;64868;45.710;9.590;2023-08-01T11:13:10;10.57;;;4.32;;
72949;SDS011;64868;45.710;9.590;2023-08-01T11:15:41;6.00;;;3.13;;
72949;SDS011;64868;45.710;9.590;2023-08-01T11:18:09;9.48;;;4.20;;
72949;SDS011;64868;45.710;9.590;2023-08-01T11:20:39;6.32;;;3.58;;
72949;SDS011;64868;45.710;9.590;2023-08-01T11:23:09;7.28;;;3.20;;
72949;SDS011;64868;45.710;9.590;2023-08-01T11:25:40;8.15;;;3.75;;
72949;SDS011;64868;45.710;9.590;2023-08-01T11:28:10;7.50;;;3.17;;
72949;SDS011;64868;45.710;9.590;2023-08-01T11:30:40;11.98;;;3.38;;
72949;SDS011;64868;45.710;9.590;2023-08-01T11:33:18;8.02;;;3.90;;
72949;SDS011;64868;45.710;9.590;2023-08-01T11:35:49;7.55;;;4.05;;
72949;SDS011;64868;45.710;9.590;2023-08-01T11:38:19;7.47;;;4.13;;
72949;SDS011;64868;45.710;9.590;2023-08-01T11:40:47;8.68;;;4.07;;
72949;SDS011;64868;45.710;9.590;2023-08-01T11:43:16;10.32;;;3.78;;
72949;SDS011;64868;45.710;9.590;2023-08-01T11:45:51;6.65;;;3.22;;
72949;SDS011;64868;45.710;9.590;2023-08-01T11:48:25;8.20;;;3.95;;
72949;SDS011;64868;45.710;9.590;2023-08-01T11:51:02;8.45;;;4.63;;
72949;SDS011;64868;45.710;9.590;2023-08-01T11:53:29;6.70;;;3.17;;
72949;SDS011;64868;45.710;9.590;2023-08-01T11:55:59;9.32;;;4.00;;
72949;SDS011;64868;45.710;9.590;2023-08-01T11:58:33;7.22;;;3.35;;
72949;SDS011;64868;45.710;9.590;2023-08-01T12:01:06;10.73;;;4.15;;
72949;SDS011;64868;45.710;9.590;2023-08-01T12:03:54;10.20;;;4.20;;
72949;SDS011;64868;45.710;9.590;2023-08-01T12:06:23;8.18;;;4.45;;
72949;SDS011;64868;45.710;9.590;2023-08-01T12:08:51;8.70;;;3.65;;
72949;SDS011;64868;45.710;9.590;2023-08-01T12:11:28;9.93;;;4.28;;
72949;SDS011;64868;45.710;9.590;2023-08-01T12:16:32;6.75;;;3.55;;
72949;SDS011;64868;45.710;9.590;2023-08-01T12:19:02;8.48;;;3.50;;
72949;SDS011;64868;45.710;9.590;2023-08-01T12:21:31;10.15;;;3.17;;
72949;SDS011;64868;45.710;9.590;2023-08-01T12:23:59;12.57;;;3.65;;
72949;SDS011;64868;45.710;9.590;2023-08-01T12:26:27;7.93;;;3.58;;
72949;SDS011;64868;45.710;9.590;2023-08-01T12:28:54;8.48;;;4.53;;
72949;SDS011;64868;45.710;9.590;2023-08-01T12:31:22;10.43;;;4.38;;
72949;SDS011;64868;45.710;9.590;2023-08-01T12:33:50;7.85;;;4.18;;
72949;SDS011;64868;45.710;9.590;2023-08-01T12:36:18;6.32;;;3.15;;
72949;SDS011;64868;45.710;9.590;2023-08-01T12:38:48;8.00;;;3.60;;
72949;SDS011;64868;45.710;9.590;2023-08-01T12:41:18;6.55;;;3.53;;
72949;SDS011;64868;45.710;9.590;2023-08-01T12:43:46;6.40;;;3.50;;
72949;SDS011;64868;45.710;9.590;2023-08-01T12:46:14;10.00;;;4.13;;
72949;SDS011;64868;45.710;9.590;2023-08-01T12:48:44;8.75;;;3.67;;
72949;SDS011;64868;45.710;9.590;2023-08-01T12:51:11;8.73;;;4.70;;
72949;SDS011;64868;45.710;9.590;2023-08-01T12:53:41;12.27;;;4.57;;
72949;SDS011;64868;45.710;9.590;2023-08-01T12:56:10;7.65;;;4.38;;
72949;SDS011;64868;45.710;9.590;2023-08-01T12:58:40;8.70;;;4.20;;
72949;SDS011;64868;45.710;9.590;2023-08-01T13:01:07;9.65;;;3.65;;
72949;SDS011;64868;45.710;9.590;2023-08-01T13:03:37;9.50;;;4.00;;
72949;SDS011;64868;45.710;9.590;2023-08-01T13:06:05;13.15;;;4.00;;
72949;SDS011;64868;45.710;9.590;2023-08-01T13:08:32;8.13;;;4.47;;
72949;SDS011;64868;45.710;9.590;2023-08-01T13:11:00;12.88;;;4.68;;
72949;SDS011;64868;45.710;9.590;2023-08-01T13:13:30;10.38;;;4.10;;
72949;SDS011;64868;45.710;9.590;2023-08-01T13:15:58;9.93;;;4.70;;
72949;SDS011;64868;45.710;9.590;2023-08-01T13:18:28;9.73;;;4.38;;
72949;SDS011;64868;45.710;9.590;2023-08-01T13:21:01;8.82;;;4.18;;
72949;SDS011;64868;45.710;9.590;2023-08-01T13:23:31;8.07;;;4.18;;
72949;SDS011;64868;45.710;9.590;2023-08-01T13:25:59;9.60;;;4.32;;
72949;SDS011;64868;45.710;9.590;2023-08-01T13:28:29;7.25;;;3.80;;
72949;SDS011;64868;45.710;9.590;2023-08-01T13:30:57;10.05;;;4.40;;
72949;SDS011;64868;45.710;9.590;2023-08-01T13:33:24;8.77;;;5.20;;
72949;SDS011;64868;45.710;9.590;2023-08-01T13:35:55;11.68;;;5.18;;
72949;SDS011;64868;45.710;9.590;2023-08-01T13:38:25;9.60;;;4.22;;
72949;SDS011;64868;45.710;9.590;2023-08-01T13:40:50;8.95;;;4.00;;
72949;SDS011;64868;45.710;9.590;2023-08-01T13:43:20;9.70;;;4.72;;
72949;SDS011;64868;45.710;9.590;2023-08-01T13:45:50;8.95;;;4.38;;
72949;SDS011;64868;45.710;9.590;2023-08-01T13:48:20;9.95;;;4.07;;
72949;SDS011;64868;45.710;9.590;2023-08-01T13:50:50;10.93;;;4.07;;
72949;SDS011;64868;45.710;9.590;2023-08-01T13:53:20;8.25;;;4.10;;
72949;SDS011;64868;45.710;9.590;2023-08-01T13:55:50;10.55;;;4.78;;
72949;SDS011;64868;45.710;9.590;2023-08-01T13:58:21;11.52;;;4.28;;
72949;SDS011;64868;45.710;9.590;2023-08-01T14:00:48;9.40;;;4.55;;
72949;SDS011;64868;45.710;9.590;2023-08-01T14:03:19;7.65;;;3.58;;
72949;SDS011;64868;45.710;9.590;2023-08-01T14:05:49;9.55;;;4.35;;
72949;SDS011;64868;45.710;9.590;2023-08-01T14:08:19;9.23;;;3.83;;
72949;SDS011;64868;45.710;9.590;2023-08-01T14:10:49;8.25;;;4.05;;
72949;SDS011;64868;45.710;9.590;2023-08-01T14:13:19;10.13;;;4.53;;
72949;SDS011;64868;45.710;9.590;2023-08-01T14:15:49;10.48;;;4.00;;
72949;SDS011;64868;45.710;9.590;2023-08-01T14:18:19;8.88;;;4.20;;
72949;SDS011;64868;45.710;9.590;2023-08-01T14:20:49;8.77;;;4.40;;
72949;SDS011;64868;45.710;9.590;2023-08-01T14:23:17;11.10;;;4.72;;
72949;SDS011;64868;45.710;9.590;2023-08-01T14:25:47;10.73;;;4.45;;
72949;SDS011;64868;45.710;9.590;2023-08-01T14:28:17;9.52;;;4.55;;
72949;SDS011;64868;45.710;9.590;2023-08-01T14:30:47;12.57;;;5.07;;
72949;SDS011;64868;45.710;9.590;2023-08-01T14:33:17;12.10;;;4.47;;
72949;SDS011;64868;45.710;9.590;2023-08-01T14:35:48;10.38;;;4.43;;
72949;SDS011;64868;45.710;9.590;2023-08-01T14:38:18;10.13;;;4.43;;
72949;SDS011;64868;45.710;9.590;2023-08-01T14:40:48;9.07;;;4.25;;
72949;SDS011;64868;45.710;9.590;2023-08-01T14:43:16;8.20;;;4.53;;
72949;SDS011;64868;45.710;9.590;2023-08-01T14:45:43;11.18;;;4.53;;
72949;SDS011;64868;45.710;9.590;2023-08-01T14:48:14;8.77;;;4.65;;
72949;SDS011;64868;45.710;9.590;2023-08-01T14:50:39;10.50;;;4.60;;
72949;SDS011;64868;45.710;9.590;2023-08-01T14:53:07;11.33;;;4.27;;
72949;SDS011;64868;45.710;9.590;2023-08-01T14:55:33;10.38;;;4.78;;
72949;SDS011;64868;45.710;9.590;2023-08-01T14:58:02;10.98;;;4.47;;
72949;SDS011;64868;45.710;9.590;2023-08-01T15:00:34;11.32;;;4.63;;
72949;SDS011;64868;45.710;9.590;2023-08-01T15:03:01;15.27;;;4.82;;
72949;SDS011;64868;45.710;9.590;2023-08-01T15:05:31;12.55;;;4.68;;